Time;durP1;ratioP1;P1;durP2;ratioP2;P2;SDS_P1;SDS_P2;PMS_P1;PMS_P2;Temp;Humidity;BMP_temperature;BMP_pressure;BME280_temperature;BME280_humidity;BME280_pressure;Samples;Min_cycle;Max_cycle;Signal;HPM_P1;HPM_P2
2023/09/16 00:02:58;;;;;;;18.37;13.25;;;;;;;12.19;81.59;101336.77;1801911;79;21390;-59
2023/09/16 00:06:05;;;;;;;17.05;13.62;;;;;;;12.15;81.62;101344.47;1776577;79;21350;-59
2023/09/16 00:09:11;;;;;;;17.00;13.90;;;;;;;12.13;81.64;101344.30;1770933;79;21872;-60
2023/09/16 00:12:44;;;;;;;15.18;12.78;;;;;;;12.11;81.74;101343.09;1768637;80;21366;-59
2023/09/16 00:15:55;;;;;;;;;;;;;;;12.10;81.78;101345.46;1782846;79;21414;-57
2023/09/16 00:19:03;;;;;;;15.55;12.45;;;;;;;12.08;81.86;101347.53;1748419;82;20224;-58
2023/09/16 00:22:15;;;;;;;19.23;14.00;;;;;;;12.05;81.91;101347.83;1801194;79;21374;-58
2023/09/16 00:25:21;;;;;;;16.95;13.58;;;;;;;12.02;81.88;101352.27;1801210;79;21350;-57
2023/09/16 00:28:27;;;;;;;18.05;13.83;;;;;;;12.00;81.89;101352.97;1801637;79;21362;-58
2023/09/16 00:31:34;;;;;;;17.55;14.53;;;;;;;11.97;81.91;101348.64;1801364;79;21379;-58
2023/09/16 00:34:40;;;;;;;17.70;14.28;;;;;;;11.95;81.91;101347.97;1801984;79;21331;-57
2023/09/16 00:37:41;;;;;;;18.60;13.03;;;;;;;11.93;81.90;101351.38;1801524;78;21355;-58
2023/09/16 00:40:46;;;;;;;19.20;14.45;;;;;;;11.92;81.90;101351.54;1761368;79;21706;-58
2023/09/16 00:43:54;;;;;;;18.98;14.07;;;;;;;11.90;81.90;101349.45;1772273;79;21340;-59
2023/09/16 00:47:00;;;;;;;23.80;14.25;;;;;;;11.88;81.87;101356.48;1722559;81;21412;-57
2023/09/16 00:50:06;;;;;;;20.80;14.00;;;;;;;11.85;81.83;101364.16;1738134;81;21370;-57
2023/09/16 00:53:12;;;;;;;17.12;13.48;;;;;;;11.80;81.72;101371.50;1770946;79;21324;-57
2023/09/16 00:56:17;;;;;;;20.45;13.40;;;;;;;11.76;81.70;101370.12;1721572;80;21910;-56
2023/09/16 00:59:24;;;;;;;20.55;14.80;;;;;;;11.71;81.63;101373.84;1732363;82;21350;-58
2023/09/16 01:02:32;;;;;;;18.95;14.25;;;;;;;11.67;81.65;101379.28;1736495;81;21184;-57
2023/09/16 01:05:32;;;;;;;21.70;14.58;;;;;;;11.63;81.60;101381.12;1760061;80;21908;-58
2023/09/16 01:08:39;;;;;;;19.10;13.78;;;;;;;11.58;81.63;101390.30;1754080;80;21362;-58
2023/09/16 01:11:45;;;;;;;21.52;15.05;;;;;;;11.54;81.69;101393.86;1807108;78;21326;-59
2023/09/16 01:14:53;;;;;;;19.12;14.80;;;;;;;11.50;81.71;101397.95;1790461;78;21267;-59
2023/09/16 01:18:14;;;;;;;18.65;14.53;;;;;;;11.45;81.76;101398.05;1777946;79;21343;-59
2023/09/16 01:21:22;;;;;;;16.73;13.60;;;;;;;11.44;81.88;101408.19;1771997;79;21343;-59
2023/09/16 01:24:29;;;;;;;17.50;14.13;;;;;;;11.45;82.01;101416.75;1772193;79;21876;-58
2023/09/16 01:27:37;;;;;;;16.57;13.30;;;;;;;11.44;82.07;101408.69;1773097;79;21387;-58
2023/09/16 01:30:46;;;;;;;19.90;13.55;;;;;;;11.43;82.04;101408.34;1759774;79;21339;-59
2023/09/16 01:33:55;;;;;;;17.57;14.25;;;;;;;11.38;81.98;101412.06;1733495;82;21852;-59
2023/09/16 01:37:01;;;;;;;18.32;13.80;;;;;;;11.34;82.04;101410.63;1770804;81;21910;-60
2023/09/16 01:40:13;;;;;;;21.60;15.18;;;;;;;11.34;82.10;101416.11;1769988;79;21899;-57
2023/09/16 01:43:19;;;;;;;19.77;14.23;;;;;;;11.32;82.12;101410.78;1797345;79;21316;-58
2023/09/16 01:46:25;;;;;;;17.12;13.98;;;;;;;11.33;82.17;101415.77;1788375;79;21906;-58
2023/09/16 01:49:31;;;;;;;19.67;14.80;;;;;;;11.31;82.14;101417.80;1768256;80;21399;-59
2023/09/16 01:52:38;;;;;;;17.77;14.68;;;;;;;11.27;82.06;101417.27;1778102;79;21419;-58
2023/09/16 01:55:44;;;;;;;18.80;15.48;;;;;;;11.24;82.02;101427.67;1770091;79;21350;-58
2023/09/16 01:58:50;;;;;;;21.12;14.40;;;;;;;11.18;82.03;101425.55;1776137;79;21362;-58
2023/09/16 02:01:55;;;;;;;21.25;14.60;;;;;;;11.13;82.00;101418.30;1768237;79;21351;-58
2023/09/16 02:05:02;;;;;;;19.17;14.47;;;;;;;11.09;82.07;101423.72;1773195;79;21347;-57
2023/09/16 02:08:09;;;;;;;19.50;15.65;;;;;;;11.07;82.15;101423.87;1804016;79;21339;-56
2023/09/16 02:11:15;;;;;;;21.87;15.68;;;;;;;11.06;82.26;101426.77;1801398;79;21848;-57
2023/09/16 02:14:24;;;;;;;19.95;15.45;;;;;;;11.05;82.27;101427.80;1800886;78;21440;-57
2023/09/16 02:17:29;;;;;;;20.90;15.13;;;;;;;11.04;82.27;101436.52;1800392;78;21724;-56
2023/09/16 02:20:37;;;;;;;21.85;14.93;;;;;;;11.00;82.23;101432.87;1779409;78;21339;-56
2023/09/16 02:23:43;;;;;;;18.52;14.70;;;;;;;10.99;82.30;101440.75;1780971;79;21375;-57
2023/09/16 02:26:48;;;;;;;18.90;15.13;;;;;;;10.96;82.32;101443.76;1812107;78;21366;-56
2023/09/16 02:29:53;;;;;;;20.12;14.55;;;;;;;10.95;82.36;101449.77;1809715;79;21377;-57
2023/09/16 02:32:58;;;;;;;23.80;14.83;;;;;;;10.95;82.43;101444.79;1811438;79;21342;-57
2023/09/16 02:36:04;;;;;;;21.48;14.47;;;;;;;10.94;82.45;101443.08;1810589;79;21338;-57
2023/09/16 02:39:10;;;;;;;21.42;14.90;;;;;;;10.94;82.42;101449.92;1778467;79;21173;-58
2023/09/16 02:42:17;;;;;;;17.30;14.28;;;;;;;10.90;82.36;101452.59;1743766;81;21351;-57
2023/09/16 02:45:23;;;;;;;18.55;13.88;;;;;;;10.87;82.34;101453.77;1792209;79;21699;-57
2023/09/16 02:48:29;;;;;;;20.08;13.30;;;;;;;10.85;82.32;101457.66;1809249;79;21340;-56
2023/09/16 02:51:37;;;;;;;18.00;14.38;;;;;;;10.82;82.38;101453.36;1809783;79;21322;-57
2023/09/16 02:54:44;;;;;;;20.45;14.55;;;;;;;10.80;82.40;101447.16;1809662;78;21310;-57
2023/09/16 02:57:49;;;;;;;18.20;13.78;;;;;;;10.83;82.50;101451.49;1795586;79;21362;-57
2023/09/16 03:00:55;;;;;;;18.65;13.90;;;;;;;10.81;82.47;101453.02;1788426;79;21357;-59
2023/09/16 03:04:03;;;;;;;17.37;13.72;;;;;;;10.81;82.48;101460.36;1807050;78;21392;-58
2023/09/16 03:07:10;;;;;;;21.52;14.55;;;;;;;10.80;82.45;101454.54;1808203;78;21811;-59
2023/09/16 03:10:16;;;;;;;16.60;13.50;;;;;;;10.79;82.39;101455.53;1807076;79;21345;-57
2023/09/16 03:13:26;;;;;;;17.70;13.55;;;;;;;10.76;82.37;101458.58;1807221;79;21335;-58
2023/09/16 03:16:32;;;;;;;20.35;14.23;;;;;;;10.73;82.34;101460.25;1807168;79;21321;-57
2023/09/16 03:19:38;;;;;;;20.77;13.95;;;;;;;10.68;82.33;101459.83;1807015;78;21831;-56
2023/09/16 03:22:45;;;;;;;17.12;13.98;;;;;;;10.67;82.40;101468.58;1807190;78;21365;-58
2023/09/16 03:25:50;;;;;;;21.40;13.95;;;;;;;10.63;82.34;101471.24;1787257;79;21393;-57
2023/09/16 03:28:56;;;;;;;18.17;13.72;;;;;;;10.58;82.30;101468.95;1790942;79;21314;-59
2023/09/16 03:32:03;;;;;;;16.17;13.40;;;;;;;10.56;82.31;101472.84;1807475;78;21334;-57
2023/09/16 03:35:09;;;;;;;17.10;13.78;;;;;;;10.54;82.33;101470.25;1807196;78;21866;-57
2023/09/16 03:38:17;;;;;;;17.02;13.25;;;;;;;10.54;82.40;101472.15;1796392;78;21350;-60
2023/09/16 03:41:26;;;;;;;17.17;13.28;;;;;;;10.53;82.42;101469.91;1808979;78;21318;-57
2023/09/16 03:44:32;;;;;;;20.48;12.23;;;;;;;10.54;82.46;101480.36;1808337;79;21834;-58
2023/09/16 03:47:38;;;;;;;18.77;12.75;;;;;;;10.51;82.46;101469.19;1809625;79;21329;-59
2023/09/16 03:50:45;;;;;;;17.60;13.70;;;;;;;10.51;82.50;101474.66;1809557;78;21878;-58
2023/09/16 03:53:52;;;;;;;22.10;13.83;;;;;;;10.53;82.56;101474.51;1809527;79;21416;-59
2023/09/16 03:56:58;;;;;;;18.40;12.60;;;;;;;10.55;82.60;101480.70;1809466;79;21342;-59
2023/09/16 04:00:05;;;;;;;19.87;13.65;;;;;;;10.56;82.60;101477.81;1809244;79;21156;-59
2023/09/16 04:03:14;;;;;;;17.82;14.05;;;;;;;10.58;82.62;101483.14;1809813;79;21304;-59
2023/09/16 04:06:20;;;;;;;19.77;15.60;;;;;;;10.59;82.62;101482.99;1809791;79;21814;-59
2023/09/16 04:09:27;;;;;;;21.07;15.48;;;;;;;10.60;82.59;101494.81;1809603;79;21199;-56
2023/09/16 04:12:34;;;;;;;20.50;16.55;;;;;;;10.62;82.64;101493.30;1809562;79;21927;-57
2023/09/16 04:15:40;;;;;;;24.15;17.20;;;;;;;10.64;82.72;101498.97;1809041;79;21296;-57
2023/09/16 04:18:45;;;;;;;20.62;15.78;;;;;;;10.69;82.79;101505.39;1809177;79;21234;-58
2023/09/16 04:21:51;;;;;;;18.87;14.38;;;;;;;10.73;82.81;101506.31;1793267;78;21333;-59
2023/09/16 04:24:57;;;;;;;19.35;14.93;;;;;;;10.79;82.88;101507.58;1809152;79;21325;-56
2023/09/16 04:28:03;;;;;;;20.57;14.60;;;;;;;10.85;82.95;101515.19;1806870;78;21314;-60
2023/09/16 04:31:09;;;;;;;20.27;13.98;;;;;;;10.90;82.97;101514.23;1789122;79;21318;-58
2023/09/16 04:34:17;;;;;;;21.52;14.25;;;;;;;10.96;82.97;101520.47;1807515;78;21317;-58
2023/09/16 04:37:24;;;;;;;17.95;14.35;;;;;;;11.01;82.99;101521.77;1793275;79;21322;-56
2023/09/16 04:40:23;;;;;;;14.98;12.53;;;;;;;11.08;83.06;101534.36;1807156;78;21897;-60
2023/09/16 04:43:29;;;;;;;17.40;13.15;;;;;;;11.14;83.08;101539.23;1806525;78;21349;-59
2023/09/16 04:46:36;;;;;;;17.55;12.25;;;;;;;11.20;83.15;101544.09;1812121;77;21412;-58
2023/09/16 04:49:44;;;;;;;16.62;11.85;;;;;;;11.28;83.21;101541.46;1811784;77;21417;-56
2023/09/16 04:52:52;;;;;;;18.17;10.98;;;;;;;11.34;83.28;101543.09;1772395;79;21422;-56
2023/09/16 04:56:09;;;;;;;18.85;12.23;;;;;;;11.42;83.36;101543.69;1762718;80;21351;-57
2023/09/16 04:59:16;;;;;;;16.65;12.78;;;;;;;11.52;83.41;101549.99;1740679;82;21258;-56
2023/09/16 05:02:25;;;;;;;15.25;11.90;;;;;;;11.59;83.43;101553.33;1765116;81;21419;-56
2023/09/16 05:05:32;;;;;;;16.93;11.93;;;;;;;11.67;83.49;101548.50;1765525;80;21435;-56
2023/09/16 05:08:38;;;;;;;14.85;10.93;;;;;;;11.76;83.55;101546.19;1765248;81;21387;-56
2023/09/16 05:11:45;;;;;;;20.95;11.48;;;;;;;11.86;83.59;101549.73;1765317;80;21374;-56
2023/09/16 05:14:51;;;;;;;15.75;11.90;;;;;;;11.94;83.69;101549.79;1765176;80;21371;-55
2023/09/16 05:17:57;;;;;;;19.73;12.07;;;;;;;12.04;83.75;101553.33;1766242;81;21880;-59
2023/09/16 05:21:04;;;;;;;16.27;11.83;;;;;;;12.14;83.83;101555.50;1798455;79;21745;-56
2023/09/16 05:24:11;;;;;;;16.60;11.73;;;;;;;12.25;83.84;101557.12;1799849;79;21273;-57
2023/09/16 05:27:17;;;;;;;20.35;12.45;;;;;;;12.36;83.87;101565.13;1769902;80;21335;-56
2023/09/16 05:30:21;;;;;;;19.45;12.43;;;;;;;12.46;83.88;101567.28;1768788;79;21406;-55
2023/09/16 05:33:29;;;;;;;15.55;12.07;;;;;;;12.54;83.91;101564.06;1769208;81;21428;-55
2023/09/16 05:36:35;;;;;;;18.37;12.40;;;;;;;12.66;83.94;101572.92;1769526;79;21407;-56
2023/09/16 05:39:41;;;;;;;14.33;10.95;;;;;;;12.76;83.96;101575.94;1769525;79;21374;-56
2023/09/16 05:42:50;;;;;;;16.20;10.85;;;;;;;12.87;84.00;101570.17;1768903;81;21251;-55
2023/09/16 05:46:00;;;;;;;21.50;11.33;;;;;;;12.97;84.03;101574.19;1767592;80;21371;-56
2023/09/16 05:49:08;;;;;;;;;;;;;;;13.07;84.04;101573.58;1771461;81;21860;-57
2023/09/16 05:52:14;;;;;;;17.30;11.03;;;;;;;13.18;84.03;101578.30;1770135;80;20275;-56
2023/09/16 05:55:19;;;;;;;14.98;10.53;;;;;;;13.25;84.02;101576.63;1769010;79;21878;-57
2023/09/16 05:58:26;;;;;;;14.80;10.45;;;;;;;13.34;84.00;101574.75;1740194;81;21820;-57
2023/09/16 06:01:33;;;;;;;14.38;10.10;;;;;;;13.43;84.01;101582.87;1743889;80;21367;-55
2023/09/16 06:04:41;;;;;;;17.00;10.35;;;;;;;13.53;84.00;101580.00;1739189;80;21355;-56
2023/09/16 06:07:50;;;;;;;14.33;10.10;;;;;;;13.64;84.03;101586.58;1747112;81;21214;-54
2023/09/16 06:10:59;;;;;;;11.38;9.43;;;;;;;13.73;84.02;101591.61;1739503;81;21240;-56
2023/09/16 06:14:08;;;;;;;12.30;9.90;;;;;;;13.83;83.98;101589.55;1748987;81;21329;-55
2023/09/16 06:17:13;;;;;;;17.85;10.30;;;;;;;13.93;83.99;101588.91;1772614;79;21983;-57
2023/09/16 06:20:20;;;;;;;14.95;11.60;;;;;;;14.05;84.03;101601.34;1770374;80;21849;-56
2023/09/16 06:23:27;;;;;;;17.48;10.45;;;;;;;14.16;84.07;101594.14;1779280;79;21341;-56
2023/09/16 06:26:34;;;;;;;13.40;10.05;;;;;;;14.27;84.09;101596.60;1767948;79;21431;-57
2023/09/16 06:29:41;;;;;;;13.65;9.93;;;;;;;14.37;84.04;101590.39;1779798;79;21368;-56
2023/09/16 06:32:48;;;;;;;13.28;9.30;;;;;;;14.49;84.06;101593.17;1737637;82;21372;-57
2023/09/16 06:35:55;;;;;;;13.50;9.50;;;;;;;14.61;84.10;101589.03;1737711;81;21887;-56
2023/09/16 06:39:05;;;;;;;15.55;9.88;;;;;;;14.70;84.07;101597.62;1737383;82;21333;-56
2023/09/16 06:42:05;;;;;;;12.30;9.10;;;;;;;14.80;84.07;101592.81;1736675;82;21257;-58
2023/09/16 06:45:00;;;;;;;12.10;9.28;;;;;;;14.92;84.05;101605.23;1797890;78;21334;-55
2023/09/16 06:47:48;;;;;;;12.33;9.30;;;;;;;15.01;84.03;101598.65;1796495;79;21394;-57
2023/09/16 06:50:54;;;;;;;11.50;8.63;;;;;;;15.10;84.03;101601.73;1800794;78;21241;-56
2023/09/16 06:54:01;;;;;;;14.73;9.10;;;;;;;15.21;84.04;101603.25;1799819;79;21188;-56
2023/09/16 06:57:06;;;;;;;14.07;9.73;;;;;;;15.35;84.04;101608.91;1799608;79;21208;-57
2023/09/16 07:00:11;;;;;;;17.52;9.58;;;;;;;15.45;83.97;101617.88;1798116;79;21542;-57
2023/09/16 07:03:27;;;;;;;10.90;8.95;;;;;;;15.54;83.96;101611.29;1775234;79;21190;-60
2023/09/16 07:06:34;;;;;;;13.00;8.43;;;;;;;15.65;83.91;101612.28;1767316;79;21312;-59
2023/09/16 07:09:42;;;;;;;11.97;8.25;;;;;;;15.77;83.90;101613.63;1740593;81;21196;-58
2023/09/16 07:12:48;;;;;;;11.85;8.10;;;;;;;15.89;83.86;101612.17;1737859;81;21204;-59
2023/09/16 07:16:02;;;;;;;12.63;8.05;;;;;;;15.99;83.80;101616.97;1736814;81;21351;-61
2023/09/16 07:19:08;;;;;;;13.35;8.45;;;;;;;16.12;83.81;101623.28;1735679;82;21200;-59
2023/09/16 07:22:13;;;;;;;10.15;7.80;;;;;;;16.25;83.83;101617.48;1758002;81;21197;-59
2023/09/16 07:25:18;;;;;;;10.93;7.95;;;;;;;16.37;83.81;101610.52;1761950;81;21209;-59
2023/09/16 07:28:25;;;;;;;9.68;6.67;;;;;;;16.49;83.75;101610.95;1803351;79;21188;-59
2023/09/16 07:31:33;;;;;;;8.60;6.90;;;;;;;16.63;83.73;101612.08;1766582;80;21205;-59
2023/09/16 07:34:40;;;;;;;12.90;6.62;;;;;;;16.74;83.65;101620.80;1804409;79;21354;-59
2023/09/16 07:37:45;;;;;;;9.88;6.80;;;;;;;16.86;83.55;101615.16;1787914;78;21346;-59
2023/09/16 07:40:52;;;;;;;7.70;6.05;;;;;;;16.93;83.40;101615.27;1763407;81;21352;-60
2023/09/16 07:43:57;;;;;;;8.90;6.22;;;;;;;17.04;83.42;101613.44;1769836;80;21363;-58
2023/09/16 07:47:03;;;;;;;8.65;5.67;;;;;;;17.16;83.40;101614.17;1780197;79;21236;-58
2023/09/16 07:50:08;;;;;;;9.83;6.03;;;;;;;17.26;83.30;101613.37;1765849;81;21343;-59
2023/09/16 07:53:15;;;;;;;7.08;5.58;;;;;;;17.35;83.18;101611.36;1766231;81;21244;-59
2023/09/16 07:56:23;;;;;;;8.85;5.50;;;;;;;17.45;83.11;101610.09;1766344;81;21355;-59
2023/09/16 07:59:30;;;;;;;7.33;5.80;;;;;;;17.55;83.02;101612.02;1766179;81;21340;-60
2023/09/16 08:02:37;;;;;;;12.50;5.80;;;;;;;17.64;82.92;101612.80;1756150;80;21367;-59
2023/09/16 08:05:43;;;;;;;7.00;5.90;;;;;;;17.73;82.84;101611.64;1765877;80;21197;-59
2023/09/16 08:08:54;;;;;;;9.18;6.08;;;;;;;17.82;82.69;101611.89;1765624;81;21371;-57
2023/09/16 08:11:59;;;;;;;7.00;5.58;;;;;;;17.93;82.65;101614.16;1766121;81;21348;-59
2023/09/16 08:15:06;;;;;;;8.40;5.72;;;;;;;18.01;82.50;101611.80;1765694;81;21205;-59
2023/09/16 08:18:18;;;;;;;7.08;5.22;;;;;;;18.08;82.38;101616.36;1772697;80;21304;-57
2023/09/16 08:21:25;;;;;;;9.88;5.10;;;;;;;18.20;82.39;101612.05;1803573;78;21248;-57
2023/09/16 08:24:34;;;;;;;6.75;4.40;;;;;;;18.30;82.29;101615.34;1800230;79;21394;-58
2023/09/16 08:27:39;;;;;;;8.23;4.20;;;;;;;18.39;82.19;101610.06;1800200;79;21347;-56
2023/09/16 08:30:43;;;;;;;9.70;4.20;;;;;;;18.46;81.97;101609.59;1764981;81;21878;-58
2023/09/16 08:33:50;;;;;;;7.33;4.72;;;;;;;18.50;81.66;101616.48;1736934;82;21406;-56
2023/09/16 08:36:57;;;;;;;6.78;4.50;;;;;;;18.56;81.48;101612.91;1798776;79;21359;-60
2023/09/16 08:40:06;;;;;;;10.35;4.40;;;;;;;18.63;81.33;101612.42;1788728;78;21370;-57
2023/09/16 08:43:31;;;;;;;7.45;4.45;;;;;;;18.70;81.14;101616.14;1769609;80;21347;-58
2023/09/16 08:46:39;;;;;;;7.10;4.72;;;;;;;18.78;80.96;101622.06;1749335;81;21840;-56
2023/09/16 08:49:50;;;;;;;10.85;5.03;;;;;;;18.86;80.85;101624.70;1736442;80;21383;-57
2023/09/16 08:53:02;;;;;;;7.00;3.98;;;;;;;18.94;80.69;101631.52;1736500;82;21407;-57
2023/09/16 08:56:08;;;;;;;7.25;4.20;;;;;;;19.01;80.59;101626.89;1739179;80;21748;-57
2023/09/16 08:59:14;;;;;;;9.30;4.67;;;;;;;19.08;80.38;101630.05;1754114;81;21204;-56
2023/09/16 09:02:19;;;;;;;6.60;4.80;;;;;;;19.13;80.15;101631.69;1768496;81;21748;-58
2023/09/16 09:05:25;;;;;;;6.53;4.47;;;;;;;19.18;79.92;101630.56;1744915;81;21457;-57
2023/09/16 09:08:32;;;;;;;5.30;4.25;;;;;;;19.23;79.72;101629.95;1763524;79;21345;-57
2023/09/16 09:11:38;;;;;;;6.17;4.60;;;;;;;19.30;79.58;101628.09;1745254;81;21433;-57
2023/09/16 09:14:45;;;;;;;7.58;4.65;;;;;;;19.36;79.38;101624.51;1727982;81;21737;-58
2023/09/16 09:17:54;;;;;;;6.65;4.45;;;;;;;19.42;79.19;101633.44;1734780;82;21425;-58
2023/09/16 09:21:00;;;;;;;5.60;4.50;;;;;;;19.48;79.03;101629.84;1732958;81;21839;-59
2023/09/16 09:24:05;;;;;;;5.87;4.37;;;;;;;19.57;78.86;101634.72;1734991;82;21232;-59
2023/09/16 09:27:12;;;;;;;8.90;4.08;;;;;;;19.63;78.65;101639.45;1798694;79;21212;-58
2023/09/16 09:30:31;;;;;;;10.25;5.00;;;;;;;19.68;78.46;101628.59;1798725;78;21223;-58
2023/09/16 09:33:34;;;;;;;7.78;4.08;;;;;;;19.77;78.27;101635.69;1798724;79;21216;-59
2023/09/16 09:36:42;;;;;;;6.22;4.62;;;;;;;19.82;78.07;101628.98;1798623;78;21204;-60
2023/09/16 09:39:47;;;;;;;5.20;3.90;;;;;;;19.86;77.84;101631.15;1798602;80;21780;-59
2023/09/16 09:43:01;;;;;;;6.58;4.22;;;;;;;19.91;77.65;101632.78;1798166;80;21259;-59
2023/09/16 09:46:09;;;;;;;6.25;4.10;;;;;;;19.97;77.48;101635.25;1797901;78;21245;-58
2023/09/16 09:49:15;;;;;;;6.87;4.20;;;;;;;20.01;77.25;101633.80;1793121;78;21220;-58
2023/09/16 09:52:22;;;;;;;4.60;3.70;;;;;;;20.09;77.08;101636.39;1737447;81;21792;-59
2023/09/16 09:55:30;;;;;;;6.28;4.40;;;;;;;20.16;76.87;101633.99;1753709;79;21351;-58
2023/09/16 09:58:36;;;;;;;5.45;3.90;;;;;;;20.22;76.66;101630.89;1758264;81;21277;-58
2023/09/16 10:01:44;;;;;;;6.45;4.50;;;;;;;20.28;76.45;101628.70;1759769;79;21246;-60
2023/09/16 10:04:52;;;;;;;6.97;4.42;;;;;;;20.35;76.22;101633.73;1675636;81;21572;-58
2023/09/16 10:07:59;;;;;;;5.45;4.22;;;;;;;20.42;75.97;101634.63;1696401;83;21208;-59
2023/09/16 10:11:07;;;;;;;8.08;4.45;;;;;;;20.49;75.81;101629.39;1716543;81;21228;-59
2023/09/16 10:14:13;;;;;;;5.12;4.03;;;;;;;20.56;75.55;101628.02;1739834;81;21163;-58
2023/09/16 10:17:19;;;;;;;6.42;4.35;;;;;;;20.61;75.24;101624.91;1728814;83;21168;-57
2023/09/16 10:20:28;;;;;;;7.25;4.47;;;;;;;20.68;75.14;101624.41;1720832;82;21728;-58
2023/09/16 10:23:34;;;;;;;8.60;4.83;;;;;;;20.78;74.96;101626.77;1720477;82;21729;-58
2023/09/16 10:26:39;;;;;;;8.30;4.58;;;;;;;20.88;74.71;101624.44;1763420;80;21212;-57
2023/09/16 10:29:46;;;;;;;6.42;4.60;;;;;;;20.94;74.38;101624.98;1754634;79;21195;-58
2023/09/16 10:32:52;;;;;;;6.80;4.42;;;;;;;21.00;74.15;101626.06;1762552;79;21333;-57
2023/09/16 10:35:58;;;;;;;5.92;4.22;;;;;;;21.07;73.85;101626.41;1728491;81;21220;-58
2023/09/16 10:39:04;;;;;;;5.58;4.60;;;;;;;21.13;73.60;101624.16;1750721;81;21575;-57
2023/09/16 10:42:10;;;;;;;7.22;4.80;;;;;;;21.22;73.36;101625.64;1716528;83;21286;-58
2023/09/16 10:45:17;;;;;;;5.92;4.67;;;;;;;21.27;73.05;101624.99;1768694;80;21803;-58
2023/09/16 10:48:24;;;;;;;7.65;4.92;;;;;;;21.37;72.92;101632.39;1729820;81;21353;-59
2023/09/16 10:51:30;;;;;;;6.17;4.47;;;;;;;21.46;72.71;101626.91;1750638;79;21243;-58
2023/09/16 10:54:44;;;;;;;8.78;4.90;;;;;;;21.53;72.40;101629.98;1766737;80;21192;-57
2023/09/16 10:57:55;;;;;;;6.87;4.78;;;;;;;21.60;72.16;101632.23;1762695;81;21262;-57
2023/09/16 11:01:00;;;;;;;6.65;4.37;;;;;;;21.69;71.94;101630.92;1767998;80;21217;-57
2023/09/16 11:04:21;;;;;;;7.97;4.55;;;;;;;21.78;71.74;101625.48;1765314;80;22038;-58
2023/09/16 11:07:26;;;;;;;10.08;4.70;;;;;;;21.88;71.45;101623.64;1764630;80;21543;-58
2023/09/16 11:10:32;;;;;;;7.30;4.92;;;;;;;21.98;71.20;101617.91;1765977;81;21199;-57
2023/09/16 11:13:37;;;;;;;6.85;5.00;;;;;;;22.08;70.98;101616.91;1748053;81;21209;-58
2023/09/16 11:16:58;;;;;;;7.67;4.95;;;;;;;22.23;70.80;101626.92;1764589;81;21260;-63
2023/09/16 11:20:33;;;;;;;6.97;4.80;;;;;;;22.27;70.26;101619.81;1736315;81;21557;-57
2023/09/16 11:23:35;;;;;;;5.78;4.95;;;;;;;22.23;69.80;101612.98;1737595;82;21205;-57
2023/09/16 11:26:45;;;;;;;5.47;4.72;;;;;;;22.23;69.41;101613.28;1727016;82;21212;-58
2023/09/16 11:29:53;;;;;;;8.83;5.40;;;;;;;22.32;69.26;101606.05;1730393;81;21206;-58
2023/09/16 11:33:09;;;;;;;6.47;4.85;;;;;;;22.41;68.99;101611.68;1714331;82;21268;-57
2023/09/16 11:36:25;;;;;;;9.85;5.37;;;;;;;22.52;68.78;101604.89;1740947;81;21843;-57
2023/09/16 11:39:49;;;;;;;8.73;4.60;;;;;;;22.64;68.41;101599.45;1745673;80;21350;-58
2023/09/16 11:42:53;;;;;;;;;;;;;;;22.71;68.01;101593.27;1735496;82;21820;-59
2023/09/16 11:45:59;;;;;;;7.80;4.78;;;;;;;22.74;67.54;101602.62;1740905;80;20210;-58
2023/09/16 11:49:08;;;;;;;6.40;4.85;;;;;;;22.71;67.22;101593.27;1739300;82;21228;-58
2023/09/16 11:52:14;;;;;;;5.47;4.50;;;;;;;22.77;67.00;101599.37;1751987;81;21876;-57
2023/09/16 11:55:20;;;;;;;7.47;5.05;;;;;;;22.86;66.84;101596.61;1778598;79;21354;-57
2023/09/16 11:58:27;;;;;;;5.85;4.78;;;;;;;22.97;66.61;101589.75;1773011;79;21346;-58
2023/09/16 12:01:43;;;;;;;7.42;5.10;;;;;;;23.05;66.20;101588.61;1791752;79;21354;-59
2023/09/16 12:04:53;;;;;;;7.40;5.03;;;;;;;23.00;65.50;101591.22;1765284;79;21382;-59
2023/09/16 12:08:01;;;;;;;8.65;4.90;;;;;;;22.98;65.14;101591.98;1786908;79;21378;-58
2023/09/16 12:11:08;;;;;;;6.37;5.10;;;;;;;22.95;64.75;101588.25;1773317;80;21181;-58
2023/09/16 12:14:14;;;;;;;8.00;4.78;;;;;;;22.98;64.51;101585.00;1770302;79;21277;-58
2023/09/16 12:17:20;;;;;;;6.17;4.78;;;;;;;22.97;64.13;101586.09;1764698;81;21452;-58
2023/09/16 12:20:25;;;;;;;5.80;4.95;;;;;;;22.83;63.58;101581.70;1765797;79;21702;-57
2023/09/16 12:23:32;;;;;;;8.93;4.90;;;;;;;22.79;63.46;101584.09;1765703;80;21185;-57
2023/09/16 12:26:38;;;;;;;8.33;4.92;;;;;;;22.81;63.21;101581.06;1767653;79;21515;-58
2023/09/16 12:29:46;;;;;;;8.50;5.03;;;;;;;22.82;62.92;101580.84;1790867;78;21417;-58
2023/09/16 12:32:59;;;;;;;6.40;4.85;;;;;;;22.84;62.55;101577.81;1764801;79;21252;-59
2023/09/16 12:36:06;;;;;;;5.97;4.65;;;;;;;22.85;62.23;101574.80;1765761;80;21726;-59
2023/09/16 12:39:13;;;;;;;6.30;4.83;;;;;;;22.87;61.95;101576.83;1757084;81;21196;-58
2023/09/16 12:42:18;;;;;;;5.65;4.70;;;;;;;22.79;61.56;101580.43;1755772;81;21204;-59
2023/09/16 12:45:24;;;;;;;8.20;4.72;;;;;;;22.70;61.27;101581.80;1764472;80;21203;-57
2023/09/16 12:48:29;;;;;;;9.30;5.42;;;;;;;22.54;60.91;101579.55;1727445;82;21593;-58
2023/09/16 12:51:36;;;;;;;6.15;5.08;;;;;;;22.39;60.61;101578.98;1735584;81;21209;-57
2023/09/16 12:54:42;;;;;;;8.35;4.45;;;;;;;22.28;60.43;101572.71;1738643;81;21225;-57
2023/09/16 12:57:49;;;;;;;7.20;5.22;;;;;;;22.25;60.21;101567.58;1735814;82;21671;-58
2023/09/16 13:00:59;;;;;;;7.47;5.45;;;;;;;22.28;60.02;101569.92;1736255;81;21754;-60
2023/09/16 13:04:06;;;;;;;6.62;5.22;;;;;;;22.31;59.78;101575.05;1720897;82;21201;-57
2023/09/16 13:07:12;;;;;;;6.95;4.72;;;;;;;22.33;59.59;101573.73;1768209;79;21957;-58
2023/09/16 13:10:20;;;;;;;6.37;4.70;;;;;;;22.32;59.31;101571.17;1768703;79;21208;-57
2023/09/16 13:13:30;;;;;;;6.78;5.00;;;;;;;22.32;59.11;101572.56;1754839;81;21708;-57
2023/09/16 13:16:38;;;;;;;8.73;5.37;;;;;;;22.29;58.84;101573.88;1781101;79;21216;-58
2023/09/16 13:19:48;;;;;;;7.05;4.90;;;;;;;22.26;58.60;101570.67;1782457;79;21188;-59
2023/09/16 13:22:53;;;;;;;7.62;5.90;;;;;;;22.23;58.34;101571.99;1788341;79;21788;-58
2023/09/16 13:26:18;;;;;;;14.23;5.55;;;;;;;22.23;58.12;101570.59;1805156;78;21776;-57
2023/09/16 13:29:23;;;;;;;8.20;4.72;;;;;;;22.23;57.92;101565.85;1797569;79;21190;-58
2023/09/16 13:32:29;;;;;;;7.50;4.83;;;;;;;22.26;57.70;101570.67;1797904;80;21233;-58
2023/09/16 13:35:35;;;;;;;7.25;5.47;;;;;;;22.27;57.50;101576.56;1735478;82;21919;-57
2023/09/16 13:38:42;;;;;;;8.73;5.62;;;;;;;22.25;57.26;101578.18;1774053;79;21394;-58
2023/09/16 13:41:49;;;;;;;6.42;5.47;;;;;;;22.23;57.08;101572.83;1800315;79;21363;-57
2023/09/16 13:44:55;;;;;;;9.93;5.65;;;;;;;22.22;56.84;101578.63;1798667;80;21761;-57
2023/09/16 13:48:24;;;;;;;6.83;5.37;;;;;;;22.20;56.67;101583.03;1798450;79;21189;-57
2023/09/16 13:51:30;;;;;;;7.95;5.25;;;;;;;22.18;56.46;101581.56;1799689;79;21390;-57
2023/09/16 13:54:37;;;;;;;9.80;5.40;;;;;;;22.18;56.23;101581.00;1800033;79;21350;-58
2023/09/16 13:57:42;;;;;;;8.53;5.55;;;;;;;22.15;56.04;101581.45;1803348;79;21339;-58
2023/09/16 14:00:49;;;;;;;8.98;5.65;;;;;;;22.12;55.92;101580.50;1803932;79;21888;-56
2023/09/16 14:03:56;;;;;;;9.33;5.47;;;;;;;22.11;55.80;101578.80;1805935;79;21686;-58
2023/09/16 14:07:04;;;;;;;8.30;5.67;;;;;;;22.13;55.62;101579.45;1770891;80;21201;-57
2023/09/16 14:10:09;;;;;;;9.40;6.15;;;;;;;22.15;55.41;101583.41;1766870;81;21698;-58
2023/09/16 14:13:15;;;;;;;8.00;5.42;;;;;;;22.14;55.26;101582.54;1805431;79;21707;-58
2023/09/16 14:16:19;;;;;;;8.93;6.05;;;;;;;22.13;55.14;101587.81;1814662;78;21866;-58
2023/09/16 14:19:29;;;;;;;8.80;5.65;;;;;;;22.11;55.03;101588.56;1822208;78;21364;-58
2023/09/16 14:22:37;;;;;;;9.55;5.90;;;;;;;22.08;54.89;101580.64;1824936;78;21360;-58
2023/09/16 14:25:42;;;;;;;8.80;5.80;;;;;;;22.04;54.77;101578.52;1824894;78;21419;-58